Parati, Brazil
Current Conditions -  °F | °C
As of 10:00 AM on Monday 20 Oct 2014 (Local Time) from SBGW Reporting Station
Broken Clouds Broken Clouds  
Wind Chill: 73°   Ceiling: 10000
Heat Index: 73°   Visibility: 5mi
Dew Point: 64°   Wind: 5mph
Humidity: 73%   Direction: 240°WSW
Pressure: 30"   Gusts: NA
Location:  23.21°S, 44.72°W
Report Text: SBGW 201300Z 24004KT 8000 SCT030 BKN100 23/18 Q1016
Loading
Personal Weather Stations






























Interactive Weather Map
Tropical Storm Tracking
New forecast layout! Learn more

10-Day Weather Forecast

Advertisements
Track Severe Weather on mobile